createdAt,value
2022-12-25T00:00:32.376Z,29.75
2022-12-25T00:03:33.435Z,29.38
2022-12-25T00:06:34.270Z,32.42
2022-12-25T00:09:35.096Z,30.60
2022-12-25T00:12:36.066Z,26.75
2022-12-25T00:15:41.917Z,31.15
2022-12-25T00:18:43.506Z,32.90
2022-12-25T00:21:44.648Z,28.33
2022-12-25T00:24:48.153Z,30.08
2022-12-25T00:27:49.105Z,25.88
2022-12-25T00:30:50.260Z,31.38
2022-12-25T00:33:52.561Z,27.88
2022-12-25T00:36:53.732Z,25.48
2022-12-25T00:39:54.585Z,22.17
2022-12-25T00:42:55.387Z,26.00
2022-12-25T00:45:59.544Z,26.55
2022-12-25T00:49:01.257Z,26.27
2022-12-25T00:52:02.150Z,26.52
2022-12-25T00:55:03.303Z,24.10
2022-12-25T00:58:04.288Z,23.92
2022-12-25T01:01:05.207Z,25.38
2022-12-25T01:04:06.937Z,22.15
2022-12-25T01:07:07.637Z,27.25
2022-12-25T01:10:23.195Z,31.27
2022-12-25T01:13:24.781Z,27.00
2022-12-25T01:16:26.535Z,32.60
2022-12-25T01:19:27.255Z,21.33
2022-12-25T01:22:28.833Z,21.80
2022-12-25T01:25:30.052Z,24.17
2022-12-25T01:28:30.825Z,24.75
2022-12-25T01:31:31.873Z,22.13
2022-12-25T01:34:32.905Z,26.27
2022-12-25T01:37:33.853Z,20.45
2022-12-25T01:40:35.280Z,22.83
2022-12-25T01:43:36.466Z,20.85
2022-12-25T01:46:37.628Z,23.33
2022-12-25T01:49:41.297Z,22.48
2022-12-25T01:52:42.286Z,19.45
2022-12-25T01:55:50.401Z,24.73
2022-12-25T01:58:51.481Z,20.05
2022-12-25T02:01:52.588Z,19.40
2022-12-25T02:05:09.931Z,23.98
2022-12-25T02:08:14.673Z,22.63
2022-12-25T02:11:35.589Z,52.00
2022-12-25T02:14:37.887Z,54.85
2022-12-25T02:18:08.683Z,48.90
2022-12-25T02:21:22.337Z,57.40
2022-12-25T02:24:44.433Z,147.23
2022-12-25T02:28:22.433Z,277.95
2022-12-25T02:31:38.977Z,661.25
2022-12-25T02:35:10.316Z,827.27
2022-12-25T02:38:35.927Z,824.63
2022-12-25T02:41:40.866Z,998.03
2022-12-25T02:45:04.661Z,927.83
2022-12-25T02:48:27.393Z,803.13
2022-12-25T02:51:53.126Z,1016.08
2022-12-25T02:55:22.540Z,718.83
2022-12-25T02:58:46.291Z,1010.95
2022-12-25T03:02:07.058Z,911.65
2022-12-25T03:05:33.522Z,1066.88
2022-12-25T03:08:41.636Z,1009.55
2022-12-25T03:11:46.277Z,939.78
2022-12-25T03:15:06.149Z,1032.47
2022-12-25T03:18:17.109Z,999.38
2022-12-25T03:21:36.470Z,921.33
2022-12-25T03:24:55.666Z,887.67
2022-12-25T03:27:58.377Z,1072.78
2022-12-25T03:31:22.273Z,1132.10
2022-12-25T03:35:11.921Z,794.08
2022-12-25T03:38:50.308Z,1030.30
2022-12-25T03:42:17.434Z,615.60
2022-12-25T03:46:00.221Z,918.60
2022-12-25T03:49:35.577Z,859.00
2022-12-25T03:52:58.713Z,819.60
2022-12-25T03:56:18.944Z,595.83
2022-12-25T03:59:40.736Z,737.50
2022-12-25T04:03:00.912Z,636.05
2022-12-25T04:06:20.432Z,591.00
2022-12-25T04:09:40.031Z,587.22
2022-12-25T04:12:59.830Z,548.15
2022-12-25T04:16:19.484Z,722.88
2022-12-25T04:19:38.990Z,612.28
2022-12-25T04:22:58.577Z,592.05
2022-12-25T04:26:17.920Z,552.33
2022-12-25T04:29:37.676Z,671.10
2022-12-25T04:32:56.640Z,529.47
2022-12-25T04:36:09.650Z,533.55
2022-12-25T04:39:11.205Z,630.35
2022-12-25T04:42:12.126Z,678.97
2022-12-25T04:45:12.975Z,366.95
2022-12-25T04:48:13.749Z,676.85
2022-12-25T04:51:18.760Z,518.05
2022-12-25T04:54:19.622Z,624.10
2022-12-25T04:57:20.848Z,648.13
2022-12-25T05:00:21.823Z,720.78
2022-12-25T05:03:22.772Z,703.67
2022-12-25T05:06:24.102Z,709.13
2022-12-25T05:09:26.643Z,681.75
2022-12-25T05:12:27.612Z,619.65
2022-12-25T05:15:28.777Z,371.65
2022-12-25T05:18:29.807Z,539.40
2022-12-25T05:21:30.636Z,335.98
2022-12-25T05:24:31.626Z,208.52
2022-12-25T05:27:32.717Z,170.43
2022-12-25T05:30:35.057Z,199.40
2022-12-25T05:33:35.997Z,401.88
2022-12-25T05:36:36.648Z,587.28
2022-12-25T05:39:37.429Z,665.35
2022-12-25T05:42:38.582Z,551.78
2022-12-25T05:45:39.224Z,691.95
2022-12-25T05:48:40.544Z,538.13
2022-12-25T05:51:41.535Z,721.85
2022-12-25T05:54:42.750Z,499.52
2022-12-25T05:57:43.583Z,589.78
2022-12-25T06:00:44.979Z,527.17
2022-12-25T06:03:46.829Z,635.53
2022-12-25T06:06:47.869Z,773.25
2022-12-25T06:09:48.540Z,574.80
2022-12-25T06:12:49.764Z,459.58
2022-12-25T06:15:51.033Z,569.25
2022-12-25T06:18:52.466Z,644.42
2022-12-25T06:21:55.292Z,611.58
2022-12-25T06:24:56.198Z,677.28
2022-12-25T06:27:57.396Z,617.40
2022-12-25T06:30:58.840Z,612.85
2022-12-25T06:34:00.002Z,551.40
2022-12-25T06:37:01.123Z,455.80
2022-12-25T06:40:01.872Z,560.67
2022-12-25T06:43:02.630Z,486.42
2022-12-25T06:46:10.632Z,385.90
2022-12-25T06:49:11.869Z,350.27
2022-12-25T06:52:12.652Z,397.02
2022-12-25T06:55:13.490Z,322.77
2022-12-25T06:58:14.244Z,353.90
2022-12-25T07:01:46.518Z,415.65
2022-12-25T07:04:48.778Z,261.38
2022-12-25T07:07:49.716Z,109.88
2022-12-25T07:10:51.049Z,102.22
2022-12-25T07:13:52.160Z,163.52
2022-12-25T07:16:53.079Z,268.90
2022-12-25T07:19:54.557Z,461.95
2022-12-25T07:22:56.084Z,333.15
2022-12-25T07:25:59.773Z,232.52
2022-12-25T07:29:00.744Z,622.45
2022-12-25T07:32:01.968Z,705.38
2022-12-25T07:35:02.998Z,636.03
2022-12-25T07:38:04.397Z,688.38
2022-12-25T07:41:13.178Z,822.47
2022-12-25T07:44:14.391Z,710.80
2022-12-25T07:47:15.637Z,632.40
2022-12-25T07:50:16.777Z,772.13
2022-12-25T07:53:17.761Z,647.70
2022-12-25T07:56:20.657Z,794.08
2022-12-25T07:59:21.893Z,624.08
2022-12-25T08:02:28.763Z,627.25
2022-12-25T08:05:29.964Z,876.17
2022-12-25T08:08:30.949Z,566.00
2022-12-25T08:11:33.557Z,730.78
2022-12-25T08:14:34.683Z,870.42
2022-12-25T08:17:35.815Z,793.90
2022-12-25T08:20:37.048Z,815.25
2022-12-25T08:23:41.985Z,863.05
2022-12-25T08:26:42.885Z,746.15
2022-12-25T08:29:46.687Z,696.55
2022-12-25T08:32:47.601Z,743.30
2022-12-25T08:35:48.676Z,611.05
2022-12-25T08:38:50.389Z,655.85
2022-12-25T08:41:54.152Z,644.25
2022-12-25T08:44:55.557Z,727.03
2022-12-25T08:47:57.570Z,617.47
2022-12-25T08:50:59.248Z,619.35
2022-12-25T08:54:01.227Z,481.90
2022-12-25T08:57:04.268Z,327.02
2022-12-25T09:00:06.058Z,314.63
2022-12-25T09:03:07.093Z,257.88
2022-12-25T09:06:15.157Z,206.07
2022-12-25T09:09:16.199Z,455.00
2022-12-25T09:12:17.025Z,484.67
2022-12-25T09:15:17.994Z,353.52
2022-12-25T09:18:18.915Z,307.30
2022-12-25T09:21:19.851Z,179.55
2022-12-25T09:24:21.064Z,328.00
2022-12-25T09:27:22.855Z,347.30
2022-12-25T09:30:23.849Z,379.50
2022-12-25T09:33:25.404Z,221.95
2022-12-25T09:36:27.357Z,195.43
2022-12-25T09:39:29.021Z,201.95
2022-12-25T09:42:34.500Z,205.07
2022-12-25T09:45:39.417Z,153.20
2022-12-25T09:48:51.963Z,133.77
2022-12-25T09:52:22.199Z,186.02
2022-12-25T09:55:28.153Z,103.60
2022-12-25T09:58:33.815Z,145.35
2022-12-25T10:01:56.146Z,138.20
2022-12-25T10:05:44.624Z,104.03
2022-12-25T10:09:11.296Z,127.03
2022-12-25T10:12:44.344Z,72.45
2022-12-25T10:15:52.995Z,211.40
2022-12-25T10:19:10.250Z,102.45
2022-12-25T10:25:33.404Z,100.32
2022-12-25T10:28:51.368Z,175.80
2022-12-25T10:31:56.200Z,102.40
2022-12-25T10:34:57.397Z,112.85
2022-12-25T10:38:03.184Z,90.28
2022-12-25T10:41:42.663Z,61.45
2022-12-25T10:44:56.823Z,129.65
2022-12-25T10:48:08.187Z,98.75
2022-12-25T10:51:09.637Z,128.25
2022-12-25T10:54:36.124Z,103.28
2022-12-25T10:57:46.216Z,177.85
2022-12-25T11:00:55.535Z,204.85
2022-12-25T11:03:56.775Z,216.98
2022-12-25T11:07:24.558Z,261.13
2022-12-25T11:10:35.920Z,220.95
2022-12-25T11:13:48.587Z,119.53
2022-12-25T11:16:50.641Z,219.52
2022-12-25T11:20:02.194Z,177.45
2022-12-25T11:23:10.894Z,208.23
2022-12-25T11:26:12.225Z,177.15
2022-12-25T11:29:31.134Z,150.13
2022-12-25T11:32:45.867Z,118.75
2022-12-25T11:35:55.738Z,137.88
2022-12-25T11:39:09.935Z,123.93
2022-12-25T11:42:33.209Z,121.45
2022-12-25T11:45:41.798Z,112.60
2022-12-25T11:49:08.486Z,111.35
2022-12-25T11:52:14.407Z,107.65
2022-12-25T11:55:37.172Z,194.82
2022-12-25T11:58:48.569Z,80.38
2022-12-25T12:01:56.523Z,35.35
2022-12-25T12:05:38.983Z,27.33
2022-12-25T12:08:40.933Z,31.25
2022-12-25T12:11:53.737Z,16.00
2022-12-25T12:15:28.574Z,36.72
2022-12-25T12:18:33.801Z,29.60
2022-12-25T12:21:34.781Z,36.13
2022-12-25T12:24:43.158Z,55.50
2022-12-25T12:27:45.409Z,51.17
2022-12-25T12:31:03.781Z,14.20
2022-12-25T12:34:05.600Z,37.17
2022-12-25T12:37:35.715Z,57.95
2022-12-25T12:40:52.009Z,42.30
2022-12-25T12:43:59.435Z,30.52
2022-12-25T12:50:02.405Z,31.83
2022-12-25T12:53:22.145Z,31.35
2022-12-25T12:56:23.859Z,43.58
2022-12-25T12:59:27.118Z,28.55
2022-12-25T13:02:53.218Z,25.98
2022-12-25T13:06:38.194Z,23.95
2022-12-25T13:10:19.247Z,69.75
2022-12-25T13:13:43.976Z,68.63
2022-12-25T13:16:50.173Z,88.15
2022-12-25T13:19:58.841Z,133.75
2022-12-25T13:22:59.736Z,78.72
2022-12-25T13:26:20.612Z,90.03
2022-12-25T13:29:38.773Z,111.57
2022-12-25T13:32:40.962Z,112.13
2022-12-25T13:35:45.375Z,135.38
2022-12-25T13:38:51.045Z,132.00
2022-12-25T13:42:06.692Z,101.10
2022-12-25T13:45:24.661Z,97.00
2022-12-25T13:48:25.935Z,48.70
2022-12-25T13:51:27.651Z,226.35
2022-12-25T13:54:29.086Z,73.72
2022-12-25T13:57:41.009Z,88.72
2022-12-25T14:00:58.793Z,135.82
2022-12-25T14:07:10.750Z,69.50
2022-12-25T14:10:13.553Z,108.75
2022-12-25T14:13:16.727Z,73.78
2022-12-25T14:16:22.034Z,75.78
2022-12-25T14:19:31.333Z,62.40
2022-12-25T14:22:34.204Z,91.93
2022-12-25T14:25:44.455Z,80.57
2022-12-25T14:28:53.069Z,118.57
2022-12-25T14:31:55.704Z,107.38
2022-12-25T14:35:03.683Z,77.53
2022-12-25T14:38:06.169Z,55.30
2022-12-25T14:41:25.792Z,43.90
2022-12-25T14:44:38.957Z,54.85
2022-12-25T14:47:52.828Z,48.42
2022-12-25T14:51:04.395Z,42.13
2022-12-25T14:54:20.106Z,77.70
2022-12-25T14:57:39.016Z,79.38
2022-12-25T15:00:40.702Z,91.20
2022-12-25T15:03:41.961Z,70.18
2022-12-25T15:06:59.999Z,46.08
2022-12-25T15:10:36.779Z,58.95
2022-12-25T15:13:22.428Z,62.92
2022-12-25T15:16:29.841Z,52.75
2022-12-25T15:19:38.078Z,72.53
2022-12-25T15:23:02.864Z,89.25
2022-12-25T15:26:01.162Z,81.53
2022-12-25T15:29:02.195Z,89.35
2022-12-25T15:32:03.154Z,123.47
2022-12-25T15:35:05.254Z,146.48
2022-12-25T15:38:06.391Z,117.82
2022-12-25T15:41:38.771Z,124.85
2022-12-25T15:44:41.960Z,219.63
2022-12-25T15:47:43.142Z,264.75
2022-12-25T15:50:44.370Z,351.95
2022-12-25T15:53:45.553Z,171.15
2022-12-25T15:56:53.474Z,171.45
2022-12-25T15:59:54.419Z,267.00
2022-12-25T16:02:55.742Z,215.45
2022-12-25T16:05:57.169Z,302.63
2022-12-25T16:08:58.487Z,390.92
2022-12-25T16:11:59.265Z,389.60
2022-12-25T16:15:00.129Z,400.52
2022-12-25T16:18:01.393Z,385.95
2022-12-25T16:21:02.401Z,427.63
2022-12-25T16:24:03.375Z,494.92
2022-12-25T16:27:04.329Z,411.85
2022-12-25T16:30:05.969Z,406.38
2022-12-25T16:33:08.263Z,357.50
2022-12-25T16:36:09.357Z,592.83
2022-12-25T16:39:11.388Z,477.08
2022-12-25T16:42:12.269Z,622.63
2022-12-25T16:45:14.099Z,491.17
2022-12-25T16:48:15.789Z,570.95
2022-12-25T16:51:20.756Z,410.00
2022-12-25T16:54:21.940Z,442.65
2022-12-25T16:57:22.735Z,553.95
2022-12-25T17:00:23.663Z,524.38
2022-12-25T17:03:24.474Z,465.50
2022-12-25T17:06:28.437Z,641.03
2022-12-25T17:09:29.488Z,482.88
2022-12-25T17:12:30.338Z,335.42
2022-12-25T17:15:31.195Z,651.75
2022-12-25T17:18:31.987Z,697.60
2022-12-25T17:21:34.361Z,488.80
2022-12-25T17:24:37.527Z,388.17
2022-12-25T17:27:38.477Z,468.38
2022-12-25T17:30:39.150Z,371.38
2022-12-25T17:33:42.661Z,548.53
2022-12-25T17:36:43.723Z,309.75
2022-12-25T17:39:44.590Z,362.23
2022-12-25T17:42:45.378Z,414.73
2022-12-25T17:45:46.495Z,414.30
2022-12-25T17:48:50.278Z,382.45
2022-12-25T17:51:51.395Z,374.65
2022-12-25T17:54:52.344Z,460.77
2022-12-25T17:57:53.216Z,568.78
2022-12-25T18:00:54.837Z,401.27
2022-12-25T18:03:56.343Z,228.30
2022-12-25T18:06:57.221Z,279.52
2022-12-25T18:09:57.809Z,325.83
2022-12-25T18:12:58.661Z,512.70
2022-12-25T18:16:07.779Z,472.60
2022-12-25T18:19:10.101Z,455.88
2022-12-25T18:22:10.936Z,527.75
2022-12-25T18:25:12.239Z,297.67
2022-12-25T18:28:13.133Z,396.58
2022-12-25T18:31:21.513Z,445.63
2022-12-25T18:34:23.473Z,426.13
2022-12-25T18:37:24.482Z,371.92
2022-12-25T18:40:25.986Z,433.08
2022-12-25T18:43:53.920Z,440.90
2022-12-25T18:46:48.145Z,375.30
2022-12-25T18:49:49.205Z,629.30
2022-12-25T18:52:51.627Z,483.42
2022-12-25T18:55:53.546Z,447.42
2022-12-25T18:58:54.353Z,217.93
2022-12-25T19:01:55.579Z,337.92
2022-12-25T19:04:56.599Z,364.45
2022-12-25T19:07:57.220Z,544.75
2022-12-25T19:10:58.026Z,327.38
2022-12-25T19:13:58.890Z,391.90
2022-12-25T19:16:59.733Z,240.52
2022-12-25T19:20:01.156Z,587.13
2022-12-25T19:23:02.574Z,473.90
2022-12-25T19:26:08.822Z,410.92
2022-12-25T19:29:09.839Z,373.65
2022-12-25T19:32:11.910Z,434.35
2022-12-25T19:35:12.646Z,426.67
2022-12-25T19:38:13.874Z,422.17
2022-12-25T19:41:18.848Z,495.27
2022-12-25T19:44:19.809Z,642.17
2022-12-25T19:47:20.534Z,350.85
2022-12-25T19:50:22.012Z,770.28
2022-12-25T19:53:25.981Z,334.42
2022-12-25T19:56:29.201Z,427.23
2022-12-25T19:59:30.497Z,287.48
2022-12-25T20:02:31.170Z,443.20
2022-12-25T20:05:32.769Z,455.35
2022-12-25T20:08:34.405Z,300.45
2022-12-25T20:11:38.114Z,332.88
2022-12-25T20:14:39.304Z,434.33
2022-12-25T20:17:40.572Z,299.25
2022-12-25T20:20:43.042Z,337.20
2022-12-25T20:23:47.128Z,413.73
2022-12-25T20:26:49.132Z,278.17
2022-12-25T20:29:51.445Z,632.50
2022-12-25T20:32:52.253Z,578.47
2022-12-25T20:35:53.062Z,590.97
2022-12-25T20:38:54.344Z,451.73
2022-12-25T20:41:55.794Z,658.65
2022-12-25T20:44:56.735Z,462.92
2022-12-25T20:47:59.530Z,737.58
2022-12-25T20:51:19.123Z,607.40
2022-12-25T20:54:20.228Z,590.15
2022-12-25T20:57:21.444Z,546.67
2022-12-25T21:00:22.405Z,433.13
2022-12-25T21:03:24.058Z,364.33
2022-12-25T21:06:26.066Z,527.25
2022-12-25T21:09:27.152Z,466.90
2022-12-25T21:12:27.988Z,503.75
2022-12-25T21:15:29.144Z,328.23
2022-12-25T21:18:29.868Z,488.23
2022-12-25T21:21:31.124Z,389.27
2022-12-25T21:24:31.900Z,242.10
2022-12-25T21:27:32.677Z,288.02
2022-12-25T21:30:34.077Z,342.90
2022-12-25T21:33:53.776Z,338.92
2022-12-25T21:36:54.714Z,256.60
2022-12-25T21:39:56.032Z,270.08
2022-12-25T21:42:56.714Z,259.15
2022-12-25T21:46:04.059Z,227.88
2022-12-25T21:49:05.044Z,368.02
2022-12-25T21:52:08.511Z,293.20
2022-12-25T21:55:09.796Z,182.52
2022-12-25T21:58:10.902Z,303.20
2022-12-25T22:01:12.039Z,160.40
2022-12-25T22:04:16.251Z,195.27
2022-12-25T22:07:19.795Z,159.27
2022-12-25T22:10:20.659Z,199.63
2022-12-25T22:13:40.687Z,110.63
2022-12-25T22:16:59.974Z,149.18
2022-12-25T22:20:00.663Z,119.25
2022-12-25T22:23:02.781Z,151.95
2022-12-25T22:26:05.348Z,113.03
2022-12-25T22:29:06.491Z,147.85
2022-12-25T22:32:09.036Z,311.10
2022-12-25T22:35:12.582Z,159.02
2022-12-25T22:38:13.354Z,191.30
2022-12-25T22:41:14.201Z,218.93
2022-12-25T22:44:17.781Z,242.93
2022-12-25T22:47:19.502Z,147.27
2022-12-25T22:50:20.452Z,209.75
2022-12-25T22:53:21.147Z,205.80
2022-12-25T22:56:22.241Z,249.55
2022-12-25T22:59:23.698Z,207.65
2022-12-25T23:02:24.817Z,345.30
2022-12-25T23:05:26.141Z,260.98
2022-12-25T23:08:26.881Z,130.85
2022-12-25T23:11:28.196Z,255.63
2022-12-25T23:14:41.014Z,197.35
2022-12-25T23:18:00.446Z,179.43
2022-12-25T23:21:20.519Z,202.75
2022-12-25T23:24:39.782Z,130.60
2022-12-25T23:27:41.865Z,107.72
2022-12-25T23:30:42.973Z,116.85
2022-12-25T23:33:44.096Z,93.70
2022-12-25T23:36:45.166Z,115.53
2022-12-25T23:39:47.593Z,116.53
2022-12-25T23:42:48.313Z,207.57
2022-12-25T23:45:49.150Z,130.38
2022-12-25T23:48:49.805Z,124.53
2022-12-25T23:51:51.400Z,200.00
2022-12-25T23:54:53.072Z,253.82
2022-12-25T23:57:53.808Z,398.27
